Main page
METAR-TAF:

METAR-TAF

Airports :

Dublin Airport

Dublin, Ireland

latitude: 53-26N, longitude: 006-15W, elevation: 68 m

Current weather observation

The report was made 34 minutes ago, at 22:30 UTC
Wind 3 kt from the East/Southeast
Temperature 12°C
Humidity 88%
Pressure 1028 hPa
Visibility 10 km or more
no clouds below 1500 m and no cumulonimbus

METAR: EIDW 092230Z 11003KT CAVOK 12/10 Q1028 NOSIG

Time: 00:04 (23:04 UTC)

Forecast

The report was made 6 hours and 4 minutes ago, at 17:00 UTC
Forecast valid from 09 at 18 UTC to 10 at 18 UTC
Wind 7 kt from the Southeast
Visibility 10 km or more
Few clouds at a height of 4000 ft
Becoming
from 09 at 22 UTC to 09 at 24 UTC
Wind 8 kt from the West
Becoming
from 10 at 12 UTC to 10 at 14 UTC
Wind 8 kt from the South/Southeast

TAF: EIDW 091700Z 0918/1018 14007KT 9999 FEW040 BECMG 0922/0924 28008KT BECMG 1012/1014 15008KT

Weather observations and forecasts of more than 4000 airports (METAR and TAF reports).

The available stations are represented by yellow and red dots on the map.

Hover mouse over dot to see the name of the station.

Then click to see weather observations and forecasts.

To change the map : click on the green buttons with a black cross to zoom in, on the green button with a dash to zoom out, or on the green arrows for adjacent maps.


METAR-TAF: